Startpagina
METAR-TAF:

METAR-TAF

Vliegvelden :

Luchthaven Managua

Managua, Nicaragua

breedte: 12-09N, lengte: 086-10W, hoogte: 50 m

Actueel weer

Dit bericht is 47 minuten geleden gemaakt, om 07:00 UTC
Weinig wind
Temperatuur 23°C
Vochtigheid 89%
Druk 1012 hPa
Zicht 10 km of meer
Weinig wolken op 2000 ft

METAR: MNMG 210700Z 00000KT 9999 FEW020 23/21 Q1012 A2989 NOSIG

Tijdstip: 01:47 (07:47 UTC)

Verwachting

Dit bericht is 3 uur en het 45 minuten geleden gemaakt, om 04:02 UTC
Verwachting geldig van 21 om 06 UTC tot 22 om 06 UTC
Wind 4 kt uit het oostzuidoosten
Zicht 10 km of meer
Weinig wolken op 2100 ft
Verspreide wolken op 7000 ft
Tijdelijke
van 21 om 10 UTC tot 21 om 14 UTC
Wind 6 kt uit het oosten
Weinig wolken op 2000 ft

TAF: MNMG 210402Z 2106/2206 11004KT 9999 FEW021 SCT070 TEMPO 2110/2114 09006KT FEW020

Waarnemingen en weersverwachtingen van meer dan 4000 vliegvelden (METAR en TAF).

De beschikbare stations zijn de gele en rode punten op de kaart.

Ga met uw muis naar het station om de naam te zien.

Klik dan om waarnemingen en weersverwachtingen te zien.

kaart wijzigen: klik op de groene knoppen met een zwart kruis om in te zoomen, op de groene knop met een streepje om uit te zoomen of op de groene pijlen voor aangrenzende kaarten.


METAR-TAF: